Time;durP1;ratioP1;P1;durP2;ratioP2;P2;SDS_P1;SDS_P2;PMS_P1;PMS_P2;Temp;Humidity;BMP_temperature;BMP_pressure;BME280_temperature;BME280_humidity;BME280_pressure;Samples;Min_cycle;Max_cycle;Signal;HPM_P1;HPM_P2
2022/10/21 00:01:37;;;;;;;43.42;25.17;;;11.90;99.90;;;;;;5092149;28;20100;-49
2022/10/21 00:04:03;;;;;;;46.53;26.98;;;11.30;99.90;;;;;;5091040;28;20468;-48
2022/10/21 00:06:28;;;;;;;47.08;26.77;;;11.80;99.90;;;;;;5091997;28;20043;-48
2022/10/21 00:08:54;;;;;;;46.13;26.45;;;11.10;99.90;;;;;;5091961;28;20044;-48
2022/10/21 00:11:20;;;;;;;48.45;26.88;;;11.70;99.90;;;;;;5091550;28;20074;-48
2022/10/21 00:13:45;;;;;;;46.33;27.33;;;11.50;99.90;;;;;;5091845;28;20028;-50
2022/10/21 00:16:14;;;;;;;42.83;25.65;;;11.60;99.90;;;;;;5091583;28;20052;-48
2022/10/21 00:18:41;;;;;;;44.92;26.80;;;11.10;99.90;;;;;;5091792;28;20395;-49
2022/10/21 00:21:09;;;;;;;43.95;26.50;;;11.20;99.90;;;;;;5091707;28;20123;-49
2022/10/21 00:23:36;;;;;;;46.65;27.25;;;11.80;99.90;;;;;;5095995;28;20036;-47
2022/10/21 00:26:03;;;;;;;41.70;25.45;;;11.80;99.90;;;;;;5094669;28;20040;-49
2022/10/21 00:28:29;;;;;;;50.33;26.27;;;11.80;99.90;;;;;;5096198;28;20101;-49
2022/10/21 00:30:55;;;;;;;42.60;25.27;;;11.50;99.90;;;;;;5094942;28;20082;-49
2022/10/21 00:33:21;;;;;;;43.50;26.38;;;11.00;99.90;;;;;;5096080;28;20051;-48
2022/10/21 00:35:52;;;;;;;50.75;27.73;;;11.00;99.90;;;;;;5094482;28;20052;-50
2022/10/21 00:38:18;;;;;;;45.20;25.90;;;11.10;99.90;;;;;;5095791;28;20036;-49
2022/10/21 00:40:43;;;;;;;44.20;25.35;;;11.70;99.90;;;;;;5075649;28;20434;-49
2022/10/21 00:43:10;;;;;;;44.78;25.95;;;11.00;99.90;;;;;;5074381;28;20067;-48
2022/10/21 00:45:36;;;;;;;47.28;26.23;;;11.00;99.90;;;;;;5075437;28;20401;-49
2022/10/21 00:48:10;;;;;;;43.15;25.02;;;11.10;99.90;;;;;;5075540;28;20044;-49
2022/10/21 00:50:46;;;;;;;46.97;26.10;;;11.00;99.90;;;;;;5075152;28;20051;-48
2022/10/21 00:53:14;;;;;;;44.17;26.63;;;11.10;99.90;;;;;;5075279;28;20041;-48
2022/10/21 00:55:49;;;;;;;42.83;26.75;;;11.00;99.90;;;;;;5075173;28;20048;-51
2022/10/21 00:58:17;;;;;;;41.35;25.50;;;11.80;99.90;;;;;;5075043;28;20465;-48
2022/10/21 01:00:43;;;;;;;43.60;25.08;;;11.50;99.90;;;;;;5092700;28;20070;-50
2022/10/21 01:03:09;;;;;;;42.20;24.70;;;11.70;99.90;;;;;;5095336;28;20488;-51
2022/10/21 01:05:38;;;;;;;40.80;24.95;;;11.00;99.90;;;;;;5094962;28;20040;-50
2022/10/21 01:08:04;;;;;;;42.55;24.60;;;11.00;99.90;;;;;;5095042;28;20051;-48
2022/10/21 01:10:29;;;;;;;46.20;26.50;;;11.00;99.90;;;;;;5095527;28;20375;-48
2022/10/21 01:13:20;;;;;;;45.30;25.95;;;10.90;99.90;;;;;;5095049;28;20127;-49
2022/10/21 01:16:08;;;;;;;39.67;24.40;;;10.90;99.90;;;;;;5094753;28;20048;-48
2022/10/21 01:19:02;;;;;;;46.17;25.75;;;11.00;99.90;;;;;;5095428;28;20040;-47
2022/10/21 01:21:50;;;;;;;40.35;24.05;;;11.00;99.90;;;;;;5079682;28;20055;-48
2022/10/21 01:24:25;;;;;;;45.58;26.10;;;11.60;99.90;;;;;;5095168;28;20119;-48
2022/10/21 01:27:13;;;;;;;43.53;25.50;;;11.10;99.90;;;;;;5095317;28;20067;-50
2022/10/21 01:29:51;;;;;;;47.28;26.23;;;11.50;99.90;;;;;;5094918;28;20445;-49
2022/10/21 01:32:43;;;;;;;43.97;24.75;;;11.50;99.90;;;;;;5094401;28;20415;-47
2022/10/21 01:35:17;;;;;;;39.13;23.65;;;10.80;99.90;;;;;;5094484;28;20039;-52
2022/10/21 01:37:57;;;;;;;42.33;24.92;;;10.90;99.90;;;;;;5094495;28;20533;-48
2022/10/21 01:40:30;;;;;;;44.65;24.92;;;10.80;99.90;;;;;;5076966;28;20047;-48
2022/10/21 01:43:00;;;;;;;42.88;25.77;;;11.40;99.90;;;;;;5072906;28;20055;-48
2022/10/21 01:45:46;;;;;;;41.08;25.60;;;10.90;99.90;;;;;;5074403;28;20159;-49
2022/10/21 01:48:19;;;;;;;41.70;24.90;;;11.40;99.90;;;;;;5074378;28;20040;-49
2022/10/21 01:50:54;;;;;;;38.67;24.27;;;10.80;99.90;;;;;;5074414;28;20370;-49
2022/10/21 01:53:23;;;;;;;38.33;24.73;;;10.70;99.90;;;;;;5074022;28;20446;-50
2022/10/21 01:55:50;;;;;;;49.70;25.13;;;11.10;99.90;;;;;;5074163;28;20434;-49
2022/10/21 01:58:23;;;;;;;37.47;24.73;;;11.20;99.90;;;;;;5074376;28;20149;-48
2022/10/21 02:00:51;;;;;;;38.88;24.23;;;11.00;99.90;;;;;;5093837;28;20040;-50
2022/10/21 02:03:21;;;;;;;47.03;25.30;;;11.00;99.90;;;;;;5094434;28;20078;-51
2022/10/21 02:05:47;;;;;;;42.60;24.27;;;11.00;99.90;;;;;;5094051;28;20100;-49
2022/10/21 02:08:13;;;;;;;39.97;24.38;;;11.00;99.90;;;;;;5094221;28;20043;-48
2022/10/21 02:10:43;;;;;;;45.90;26.40;;;11.40;99.90;;;;;;5093068;28;20195;-50
2022/10/21 02:13:11;;;;;;;46.63;25.45;;;11.50;99.90;;;;;;5094205;28;20055;-48
2022/10/21 02:15:39;;;;;;;40.63;25.58;;;10.90;99.90;;;;;;5093698;28;20049;-49
2022/10/21 02:18:08;;;;;;;40.13;25.17;;;11.60;99.90;;;;;;5094095;28;20047;-48
2022/10/21 02:20:38;;;;;;;45.08;24.70;;;11.40;99.90;;;;;;5093785;28;20039;-49
2022/10/21 02:23:06;;;;;;;44.70;24.55;;;11.50;99.90;;;;;;5093907;28;20058;-49
2022/10/21 02:25:35;;;;;;;45.88;26.83;;;11.10;99.90;;;;;;5093907;28;20486;-49
2022/10/21 02:28:01;;;;;;;43.42;25.02;;;11.60;99.90;;;;;;5093758;28;20040;-48
2022/10/21 02:30:38;;;;;;;41.38;25.13;;;11.20;99.90;;;;;;5093603;28;20047;-49
2022/10/21 02:33:11;;;;;;;50.22;26.33;;;11.70;99.90;;;;;;5093710;28;20443;-52
2022/10/21 02:36:18;;;;;;;46.20;25.15;;;11.00;99.90;;;;;;5093719;28;20579;-48
2022/10/21 02:38:54;;;;;;;43.30;24.83;;;11.70;99.90;;;;;;5047230;28;20044;-48
2022/10/21 02:41:23;;;;;;;48.70;25.65;;;11.10;99.90;;;;;;5030911;28;20061;-47
2022/10/21 02:44:07;;;;;;;43.03;26.05;;;11.10;99.90;;;;;;5054077;28;20144;-47
2022/10/21 02:46:40;;;;;;;42.90;24.75;;;11.00;99.90;;;;;;5073059;28;20041;-50
2022/10/21 02:49:06;;;;;;;46.75;26.88;;;11.80;99.90;;;;;;5072905;28;20036;-47
2022/10/21 02:51:32;;;;;;;55.55;27.17;;;11.10;99.90;;;;;;5072831;28;20040;-57
2022/10/21 02:53:57;;;;;;;54.35;26.42;;;11.10;99.90;;;;;;5072929;28;20043;-58
2022/10/21 02:56:24;;;;;;;67.93;29.08;;;12.00;99.90;;;;;;5073014;28;20044;-58
2022/10/21 02:58:50;;;;;;;78.45;30.10;;;11.80;99.90;;;;;;5076481;28;20159;-58
2022/10/21 03:01:15;;;;;;;54.75;27.17;;;12.10;99.90;;;;;;5093460;28;20510;-60
2022/10/21 03:03:41;;;;;;;58.47;26.85;;;11.40;99.90;;;;;;5093152;28;20147;-59
2022/10/21 03:06:06;;;;;;;61.85;26.38;;;11.30;99.90;;;;;;5093397;28;20130;-60
2022/10/21 03:08:32;;;;;;;55.83;26.90;;;12.20;99.90;;;;;;5093393;28;20122;-60
2022/10/21 03:10:58;;;;;;;56.40;26.75;;;11.40;99.90;;;;;;5093141;28;20044;-59
2022/10/21 03:13:23;;;;;;;70.13;27.65;;;11.80;99.90;;;;;;5093374;28;20039;-58
2022/10/21 03:15:50;;;;;;;62.28;25.60;;;12.40;99.90;;;;;;5091525;28;20055;-57
2022/10/21 03:18:16;;;;;;;70.78;26.98;;;12.20;99.90;;;;;;5093189;28;20388;-56
2022/10/21 03:20:42;;;;;;;73.53;26.58;;;12.40;99.90;;;;;;5092961;28;20043;-55
2022/10/21 03:23:07;;;;;;;52.47;24.27;;;11.80;99.90;;;;;;5091571;28;20039;-56
2022/10/21 03:25:33;;;;;;;49.95;23.73;;;12.40;99.90;;;;;;5092997;28;20032;-55
2022/10/21 03:27:58;;;;;;;54.15;22.80;;;12.40;99.90;;;;;;5092869;28;20472;-53
2022/10/21 03:30:24;;;;;;;43.70;22.50;;;11.60;99.90;;;;;;5092830;28;20452;-53
2022/10/21 03:32:50;;;;;;;43.58;21.35;;;12.50;99.90;;;;;;5092598;28;20039;-50
2022/10/21 03:35:16;;;;;;;40.22;20.25;;;12.20;99.90;;;;;;5092600;28;20476;-49
2022/10/21 03:37:41;;;;;;;44.08;21.75;;;12.50;99.90;;;;;;5092235;28;20468;-49
2022/10/21 03:40:08;;;;;;;42.30;21.23;;;12.10;99.90;;;;;;5092167;28;20055;-49
2022/10/21 03:42:33;;;;;;;42.17;21.45;;;12.70;99.90;;;;;;5092474;28;20032;-49
2022/10/21 03:44:59;;;;;;;48.92;22.08;;;11.80;99.90;;;;;;5092136;28;20445;-48
2022/10/21 03:47:25;;;;;;;51.85;23.33;;;12.00;99.90;;;;;;5091138;28;20101;-48
2022/10/21 03:49:50;;;;;;;53.75;23.90;;;12.30;99.90;;;;;;5092425;28;20036;-48
2022/10/21 03:52:16;;;;;;;54.83;23.77;;;11.80;99.90;;;;;;5092015;28;20040;-48
2022/10/21 03:54:42;;;;;;;52.25;24.40;;;12.70;99.90;;;;;;5092165;28;20044;-49
2022/10/21 03:57:07;;;;;;;66.50;27.55;;;12.70;99.90;;;;;;5091944;28;20046;-49
2022/10/21 03:59:33;;;;;;;62.55;26.63;;;12.50;99.90;;;;;;5092161;28;20665;-48
2022/10/21 04:01:59;;;;;;;59.80;27.23;;;11.70;99.90;;;;;;5092088;28;20123;-48
2022/10/21 04:04:24;;;;;;;56.72;26.50;;;11.80;99.90;;;;;;5091757;28;20442;-48
2022/10/21 04:06:50;;;;;;;60.92;26.50;;;12.20;99.90;;;;;;5091761;28;20048;-48
2022/10/21 04:09:15;;;;;;;61.55;25.98;;;11.70;99.90;;;;;;5092039;28;20068;-48
2022/10/21 04:11:41;;;;;;;66.18;27.60;;;12.70;99.90;;;;;;5090917;28;20044;-49
2022/10/21 04:14:07;;;;;;;71.80;27.80;;;12.70;99.90;;;;;;5091777;28;20119;-48
2022/10/21 04:16:33;;;;;;;57.38;26.25;;;12.60;99.90;;;;;;5091812;28;20361;-48
2022/10/21 04:18:59;;;;;;;56.80;26.95;;;11.70;99.90;;;;;;5091828;28;20080;-48
2022/10/21 04:21:25;;;;;;;59.95;28.77;;;12.60;99.90;;;;;;5092005;28;20044;-48
2022/10/21 04:23:51;;;;;;;67.93;29.80;;;12.40;99.90;;;;;;5091798;28;20082;-49
2022/10/21 04:26:16;;;;;;;52.72;27.27;;;12.60;99.90;;;;;;5092105;28;20040;-51
2022/10/21 04:28:42;;;;;;;65.28;27.95;;;12.60;99.90;;;;;;5091896;28;20123;-48
2022/10/21 04:31:08;;;;;;;66.65;28.63;;;11.70;99.90;;;;;;5091715;28;20068;-49
2022/10/21 04:33:33;;;;;;;62.95;28.70;;;11.90;99.90;;;;;;5091510;28;20036;-49
2022/10/21 04:35:59;;;;;;;64.80;27.92;;;12.70;99.90;;;;;;5091604;28;20035;-52
2022/10/21 04:38:25;;;;;;;65.20;28.52;;;12.30;99.90;;;;;;5091719;28;20040;-50
2022/10/21 04:41:09;;;;;;;61.67;29.35;;;11.80;99.90;;;;;;5091553;28;20457;-48
2022/10/21 04:43:36;;;;;;;65.55;29.33;;;12.60;99.90;;;;;;5091358;28;20032;-49
2022/10/21 04:46:02;;;;;;;65.10;28.88;;;12.60;99.90;;;;;;5091564;28;20047;-49
2022/10/21 04:48:28;;;;;;;65.30;29.55;;;12.10;99.90;;;;;;5091270;28;20051;-50
2022/10/21 04:50:54;;;;;;;55.92;27.42;;;11.60;99.90;;;;;;5091701;28;20044;-48
2022/10/21 04:53:20;;;;;;;55.45;28.05;;;12.50;99.90;;;;;;5091542;28;20031;-48
2022/10/21 04:55:51;;;;;;;66.95;29.05;;;12.10;99.90;;;;;;5091495;28;20051;-48
2022/10/21 04:58:16;;;;;;;62.53;29.38;;;12.40;99.90;;;;;;5091779;28;20044;-49
2022/10/21 05:00:42;;;;;;;66.75;29.55;;;11.50;99.90;;;;;;5072768;28;20040;-49
2022/10/21 05:03:08;;;;;;;62.30;29.17;;;11.90;99.90;;;;;;5071457;28;20075;-48
2022/10/21 05:05:33;;;;;;;61.47;27.08;;;11.70;99.90;;;;;;5070052;28;20115;-48
2022/10/21 05:07:59;;;;;;;64.95;27.58;;;12.30;99.90;;;;;;5072533;28;20036;-49
2022/10/21 05:10:25;;;;;;;64.03;29.33;;;12.00;99.90;;;;;;5074903;28;20051;-49
2022/10/21 05:12:51;;;;;;;60.05;28.15;;;11.90;99.90;;;;;;5075173;28;20119;-49
2022/10/21 05:15:17;;;;;;;64.55;28.08;;;11.40;99.90;;;;;;5074584;28;20068;-48
2022/10/21 05:17:43;;;;;;;62.33;28.42;;;11.50;99.90;;;;;;5074903;28;20041;-48
2022/10/21 05:20:09;;;;;;;56.35;27.27;;;12.30;99.90;;;;;;5074979;28;20439;-49
2022/10/21 05:22:35;;;;;;;64.07;29.48;;;11.40;99.90;;;;;;5074987;28;20094;-48
2022/10/21 05:25:01;;;;;;;60.75;28.02;;;11.60;99.90;;;;;;5074920;28;20051;-48
2022/10/21 05:27:27;;;;;;;59.17;28.45;;;11.90;99.90;;;;;;5074587;28;20041;-49
2022/10/21 05:29:52;;;;;;;55.33;28.33;;;11.40;99.90;;;;;;5074718;28;20040;-48
2022/10/21 05:32:18;;;;;;;59.22;27.63;;;11.70;99.90;;;;;;5074636;28;20146;-50
2022/10/21 05:34:43;;;;;;;78.32;30.45;;;11.60;99.90;;;;;;5074326;28;20041;-49
2022/10/21 05:37:09;;;;;;;77.25;29.60;;;11.40;99.90;;;;;;5074733;28;20036;-49
2022/10/21 05:39:35;;;;;;;77.38;30.40;;;11.40;99.90;;;;;;5085274;28;20028;-48
2022/10/21 05:42:00;;;;;;;66.35;28.10;;;11.50;99.90;;;;;;5094742;28;20063;-49
2022/10/21 05:44:26;;;;;;;86.65;30.50;;;12.30;99.90;;;;;;5093517;28;20058;-48
2022/10/21 05:46:52;;;;;;;56.88;28.00;;;11.40;99.90;;;;;;5094718;28;20044;-49
2022/10/21 05:49:17;;;;;;;55.38;26.70;;;11.50;99.90;;;;;;5094710;28;20042;-52
2022/10/21 05:51:44;;;;;;;69.00;28.45;;;12.20;99.90;;;;;;5094651;28;20694;-50
2022/10/21 05:54:10;;;;;;;71.53;30.75;;;11.40;99.90;;;;;;5094674;28;20048;-48
2022/10/21 05:56:35;;;;;;;58.72;28.33;;;11.40;99.90;;;;;;5094651;28;20112;-49
2022/10/21 05:59:01;;;;;;;56.80;27.90;;;12.30;99.90;;;;;;5090477;28;20469;-49
2022/10/21 06:01:27;;;;;;;58.97;27.85;;;11.60;99.90;;;;;;5090556;28;20043;-48
2022/10/21 06:03:52;;;;;;;64.07;29.05;;;12.30;99.90;;;;;;5093900;28;20036;-49
2022/10/21 06:06:18;;;;;;;58.63;28.85;;;12.10;99.90;;;;;;5093652;28;20032;-48
2022/10/21 06:08:44;;;;;;;61.03;28.98;;;11.40;99.90;;;;;;5093238;28;20430;-49
2022/10/21 06:11:13;;;;;;;75.80;29.80;;;11.60;99.90;;;;;;5093447;28;20048;-49
2022/10/21 06:13:39;;;;;;;62.58;28.02;;;11.80;99.90;;;;;;5092394;28;20079;-50
2022/10/21 06:16:06;;;;;;;73.32;29.00;;;11.40;99.90;;;;;;5093033;28;20090;-48
2022/10/21 06:18:32;;;;;;;77.22;29.85;;;11.90;99.90;;;;;;5093039;28;20483;-49
2022/10/21 06:20:58;;;;;;;70.35;29.90;;;12.30;99.90;;;;;;5092922;28;20496;-51
2022/10/21 06:23:23;;;;;;;70.15;30.65;;;12.30;99.90;;;;;;5093059;28;20040;-51
2022/10/21 06:26:07;;;;;;;84.60;30.65;;;11.50;99.90;;;;;;5093218;28;20544;-49
2022/10/21 06:28:35;;;;;;;73.35;30.90;;;11.50;99.90;;;;;;5091500;28;20126;-50
2022/10/21 06:31:02;;;;;;;78.55;32.40;;;12.20;99.90;;;;;;5092830;28;20492;-49
2022/10/21 06:33:28;;;;;;;70.30;31.80;;;12.50;99.90;;;;;;5093044;28;20048;-50
2022/10/21 06:35:54;;;;;;;93.30;32.50;;;11.70;99.90;;;;;;5092993;28;20044;-49
2022/10/21 06:38:20;;;;;;;86.28;32.85;;;11.60;99.90;;;;;;5091295;28;20123;-49
2022/10/21 06:40:47;;;;;;;90.15;34.65;;;11.90;99.90;;;;;;5072353;28;20389;-49
2022/10/21 06:43:14;;;;;;;76.50;33.55;;;12.50;99.90;;;;;;5072944;28;20093;-52
2022/10/21 06:45:39;;;;;;;82.82;33.75;;;11.60;99.90;;;;;;5072571;28;20033;-51
2022/10/21 06:48:05;;;;;;;69.15;26.17;;;11.70;99.90;;;;;;5072237;28;20493;-48
2022/10/21 06:50:31;;;;;;;62.22;26.63;;;11.70;99.90;;;;;;5070946;28;20049;-49
2022/10/21 06:52:57;;;;;;;61.85;25.05;;;12.20;99.90;;;;;;5072624;28;20051;-50
2022/10/21 06:55:23;;;;;;;59.78;26.42;;;12.70;99.90;;;;;;5072296;28;20509;-51
2022/10/21 06:57:48;;;;;;;63.72;25.77;;;11.80;99.90;;;;;;5072492;28;20102;-48
2022/10/21 07:00:14;;;;;;;66.78;26.80;;;12.70;99.90;;;;;;5072312;28;20488;-51
2022/10/21 07:02:41;;;;;;;62.00;26.42;;;12.20;99.90;;;;;;5072459;28;20040;-48
2022/10/21 07:05:07;;;;;;;64.53;26.15;;;11.90;99.90;;;;;;5072166;28;20040;-49
2022/10/21 07:07:33;;;;;;;58.72;25.15;;;11.90;99.90;;;;;;5072047;28;20056;-50
2022/10/21 07:09:59;;;;;;;69.82;25.30;;;12.30;99.90;;;;;;5071675;28;20070;-48
2022/10/21 07:12:26;;;;;;;62.03;25.52;;;12.20;99.90;;;;;;5071928;28;20066;-50
2022/10/21 07:14:53;;;;;;;52.40;25.83;;;12.50;99.90;;;;;;5071715;28;20048;-48
2022/10/21 07:17:19;;;;;;;64.15;26.45;;;12.80;99.90;;;;;;5071621;28;20473;-48
2022/10/21 07:19:45;;;;;;;67.05;25.25;;;12.10;99.90;;;;;;5054291;28;20115;-53
2022/10/21 07:22:12;;;;;;;69.70;26.30;;;12.00;99.90;;;;;;5072046;28;20124;-50
2022/10/21 07:24:38;;;;;;;64.93;25.75;;;12.70;99.90;;;;;;5071950;28;20038;-49
2022/10/21 07:27:03;;;;;;;57.92;25.10;;;13.10;99.90;;;;;;5071939;28;20455;-50
2022/10/21 07:29:29;;;;;;;55.65;25.65;;;13.20;99.90;;;;;;5071953;28;20041;-48
2022/10/21 07:31:56;;;;;;;56.13;24.73;;;12.30;99.90;;;;;;5071278;28;20047;-49
2022/10/21 07:34:22;;;;;;;55.00;23.92;;;12.30;99.90;;;;;;5071429;28;20048;-47
2022/10/21 07:36:51;;;;;;;51.72;23.08;;;12.30;99.90;;;;;;5071467;28;20036;-50
2022/10/21 07:39:20;;;;;;;55.88;23.98;;;12.90;99.90;;;;;;5077887;28;20044;-48
2022/10/21 07:41:52;;;;;;;59.20;26.40;;;13.20;99.90;;;;;;5091601;28;20032;-49
2022/10/21 07:44:19;;;;;;;51.20;23.50;;;13.10;99.90;;;;;;5090409;28;20082;-49
2022/10/21 07:46:46;;;;;;;49.83;23.17;;;13.00;99.90;;;;;;5091202;28;20036;-49
2022/10/21 07:49:13;;;;;;;50.95;22.90;;;13.00;99.90;;;;;;5091614;28;20044;-48
2022/10/21 07:51:40;;;;;;;50.25;22.95;;;12.80;99.90;;;;;;5091548;28;20036;-48
2022/10/21 07:54:06;;;;;;;51.63;23.50;;;12.60;99.90;;;;;;5091907;28;20513;-49
2022/10/21 07:56:35;;;;;;;45.83;21.83;;;13.20;99.90;;;;;;5091571;28;20043;-49
2022/10/21 07:59:01;;;;;;;44.20;21.63;;;12.20;99.90;;;;;;5090373;28;20032;-48
2022/10/21 08:01:28;;;;;;;48.85;22.35;;;13.20;99.90;;;;;;5091437;28;20119;-48
2022/10/21 08:03:54;;;;;;;49.63;23.90;;;13.20;99.90;;;;;;5091365;28;20032;-48
2022/10/21 08:06:22;;;;;;;51.45;22.85;;;12.20;99.90;;;;;;5089962;28;20080;-49
2022/10/21 08:08:48;;;;;;;51.10;23.20;;;13.20;99.90;;;;;;5091052;28;20040;-50
2022/10/21 08:11:21;;;;;;;48.05;22.55;;;12.70;99.90;;;;;;5090952;28;20040;-48
2022/10/21 08:13:47;;;;;;;47.83;21.42;;;12.20;99.90;;;;;;5091032;28;20135;-50
2022/10/21 08:16:13;;;;;;;45.25;22.35;;;12.60;99.90;;;;;;5090829;28;20131;-50
2022/10/21 08:18:39;;;;;;;45.50;23.00;;;12.50;99.90;;;;;;5091074;28;20036;-48
2022/10/21 08:21:04;;;;;;;52.53;22.45;;;13.00;99.90;;;;;;5091156;28;20512;-48
2022/10/21 08:23:31;;;;;;;47.20;22.08;;;13.30;99.90;;;;;;5090491;28;20036;-47
2022/10/21 08:25:59;;;;;;;42.30;21.08;;;13.10;99.90;;;;;;5085689;28;20182;-47
2022/10/21 08:28:26;;;;;;;44.95;21.17;;;12.30;99.90;;;;;;5081806;28;20032;-48
2022/10/21 08:30:52;;;;;;;45.10;21.80;;;13.10;99.90;;;;;;5080718;28;20036;-47
2022/10/21 08:33:18;;;;;;;43.67;22.23;;;13.20;99.90;;;;;;5079813;28;20040;-47
2022/10/21 08:35:44;;;;;;;47.45;22.42;;;12.40;99.90;;;;;;5080659;28;20059;-48
2022/10/21 08:38:10;;;;;;;43.45;20.75;;;13.40;99.90;;;;;;5079812;28;20079;-48
2022/10/21 08:40:39;;;;;;;56.58;22.30;;;13.40;99.90;;;;;;5081885;28;20071;-48
2022/10/21 08:43:16;;;;;;;44.50;21.83;;;13.30;99.90;;;;;;5092522;28;20436;-48
2022/10/21 08:45:47;;;;;;;42.05;21.73;;;12.50;99.90;;;;;;5095281;28;20039;-50
2022/10/21 08:48:16;;;;;;;47.15;22.48;;;12.90;99.90;;;;;;5095051;28;20527;-48
2022/10/21 08:50:47;;;;;;;46.17;21.20;;;13.20;99.90;;;;;;5090481;28;20050;-50
2022/10/21 08:53:29;;;;;;;39.25;21.17;;;13.60;99.90;;;;;;5088786;28;20122;-49
2022/10/21 08:56:04;;;;;;;44.45;22.15;;;13.50;99.90;;;;;;5093546;28;20076;-52
2022/10/21 08:58:30;;;;;;;45.13;21.20;;;12.90;99.90;;;;;;5083625;28;20040;-47
2022/10/21 09:01:00;;;;;;;38.90;20.60;;;13.50;99.90;;;;;;5094784;28;20047;-48
2022/10/21 09:03:54;;;;;;;49.03;21.75;;;13.70;99.90;;;;;;5084415;28;20072;-48
2022/10/21 09:06:45;;;;;;;40.67;21.40;;;12.80;99.90;;;;;;5074763;28;20044;-47
2022/10/21 09:09:35;;;;;;;45.65;21.40;;;12.80;99.90;;;;;;5069059;28;20489;-48
2022/10/21 09:12:52;;;;;;;44.47;22.33;;;13.90;99.90;;;;;;5075031;28;20048;-49
2022/10/21 09:15:33;;;;;;;39.90;20.92;;;13.40;99.90;;;;;;5073492;28;20119;-48
2022/10/21 09:18:01;;;;;;;43.10;21.85;;;13.00;99.90;;;;;;5074983;28;20084;-48
2022/10/21 09:20:34;;;;;;;41.97;20.35;;;13.10;99.90;;;;;;5075020;28;20040;-48
2022/10/21 09:23:19;;;;;;;45.35;22.20;;;14.00;99.90;;;;;;5074779;28;20460;-48
2022/10/21 09:25:55;;;;;;;40.38;20.33;;;14.40;99.90;;;;;;5074994;28;20124;-48
2022/10/21 09:28:25;;;;;;;40.25;21.05;;;13.70;99.90;;;;;;5074874;28;20041;-47
2022/10/21 09:30:51;;;;;;;42.63;20.52;;;13.60;99.90;;;;;;5074782;28;20093;-49
2022/10/21 09:33:25;;;;;;;38.35;19.85;;;14.20;99.90;;;;;;5072754;28;20378;-48
2022/10/21 09:36:12;;;;;;;42.10;21.40;;;13.60;99.90;;;;;;5073714;28;20105;-48
2022/10/21 09:38:50;;;;;;;39.03;19.13;;;14.70;99.90;;;;;;5077762;28;20047;-48
2022/10/21 09:41:20;;;;;;;34.70;19.75;;;13.60;99.90;;;;;;5095025;28;20047;-49
2022/10/21 09:43:48;;;;;;;35.20;19.23;;;14.70;99.90;;;;;;5095217;28;20044;-48
2022/10/21 09:46:15;;;;;;;35.28;17.63;;;14.90;99.90;;;;;;5093467;28;20039;-48
2022/10/21 09:48:44;;;;;;;36.22;18.33;;;13.90;99.90;;;;;;5094520;28;20079;-49
2022/10/21 09:51:15;;;;;;;35.80;17.15;;;13.80;99.90;;;;;;5094892;28;20079;-47
2022/10/21 09:53:51;;;;;;;35.85;19.05;;;15.10;99.90;;;;;;5094378;28;20043;-49
2022/10/21 09:56:25;;;;;;;33.63;16.83;;;13.90;99.90;;;;;;5094417;28;20105;-49
2022/10/21 09:59:16;;;;;;;34.50;17.95;;;13.90;99.90;;;;;;5094302;28;20040;-52
2022/10/21 10:01:43;;;;;;;31.10;16.65;;;14.10;99.90;;;;;;5094563;28;20040;-48
2022/10/21 10:04:29;;;;;;;31.80;17.85;;;14.00;99.90;;;;;;5094382;28;20043;-49
2022/10/21 10:06:57;;;;;;;30.85;16.42;;;14.30;99.90;;;;;;5093887;28;20443;-53
2022/10/21 10:09:30;;;;;;;31.70;16.67;;;14.80;99.90;;;;;;5094338;28;20483;-50
2022/10/21 10:11:59;;;;;;;26.02;15.57;;;15.00;99.90;;;;;;5092974;28;20036;-51
2022/10/21 10:14:37;;;;;;;26.10;15.60;;;15.20;99.90;;;;;;5069212;28;20032;-48
2022/10/21 10:17:30;;;;;;;29.67;16.80;;;15.00;99.90;;;;;;5083193;28;20439;-49
2022/10/21 10:20:04;;;;;;;31.17;16.05;;;14.20;99.90;;;;;;5085084;28;20752;-48
2022/10/21 10:22:30;;;;;;;26.10;15.07;;;15.20;99.90;;;;;;5085052;28;20036;-50
2022/10/21 10:25:17;;;;;;;25.45;15.13;;;15.30;99.90;;;;;;5093732;28;20390;-48
2022/10/21 10:28:02;;;;;;;27.40;16.38;;;14.20;99.90;;;;;;5093836;28;20054;-48
2022/10/21 10:30:44;;;;;;;26.50;15.90;;;14.40;99.90;;;;;;5092435;28;20044;-48
2022/10/21 10:33:23;;;;;;;27.88;15.32;;;14.30;99.90;;;;;;5093786;28;20044;-48
2022/10/21 10:36:01;;;;;;;26.20;14.93;;;14.50;99.90;;;;;;5093654;28;20713;-48
2022/10/21 10:38:32;;;;;;;26.08;15.48;;;15.50;99.90;;;;;;5091008;28;20036;-47
2022/10/21 10:41:08;;;;;;;26.65;14.80;;;15.60;99.90;;;;;;5073382;28;20087;-48
2022/10/21 10:43:42;;;;;;;28.30;15.25;;;15.50;99.90;;;;;;5073376;28;20453;-49
2022/10/21 10:46:14;;;;;;;27.38;15.15;;;15.60;99.90;;;;;;5073402;28;20059;-47
2022/10/21 10:48:48;;;;;;;23.77;14.05;;;14.60;99.90;;;;;;5073415;28;20392;-48
2022/10/21 10:51:26;;;;;;;25.05;13.98;;;15.70;99.90;;;;;;5073263;28;20391;-47
2022/10/21 10:54:30;;;;;;;22.75;13.30;;;14.70;99.90;;;;;;5072831;28;20485;-47
2022/10/21 10:57:03;;;;;;;21.45;12.68;;;14.90;99.90;;;;;;5030579;28;20045;-47
2022/10/21 10:59:34;;;;;;;27.05;12.80;;;14.80;99.90;;;;;;5022579;28;20084;-49
2022/10/21 11:02:09;;;;;;;20.92;12.45;;;15.90;99.90;;;;;;5074198;28;20504;-48
2022/10/21 11:05:01;;;;;;;21.35;12.30;;;15.40;99.90;;;;;;5093285;28;20070;-49
2022/10/21 11:07:34;;;;;;;20.60;11.68;;;15.70;99.90;;;;;;5084024;28;20127;-47
2022/10/21 11:10:12;;;;;;;19.23;11.45;;;15.40;99.90;;;;;;5082328;28;20129;-47
2022/10/21 11:12:37;;;;;;;23.42;11.68;;;15.70;99.90;;;;;;5083414;28;20512;-47
2022/10/21 11:15:06;;;;;;;24.50;11.85;;;15.50;99.90;;;;;;5081433;28;20028;-49
2022/10/21 11:17:39;;;;;;;18.63;11.57;;;16.00;99.90;;;;;;5081851;28;20048;-49
2022/10/21 11:20:28;;;;;;;22.52;11.48;;;16.10;99.90;;;;;;5082341;28;20094;-50
2022/10/21 11:23:11;;;;;;;20.88;11.52;;;16.00;99.90;;;;;;5083949;28;20052;-47
2022/10/21 11:25:44;;;;;;;19.58;10.43;;;15.20;99.90;;;;;;5083313;28;20544;-47
2022/10/21 11:28:28;;;;;;;18.35;10.13;;;15.70;99.90;;;;;;5082148;28;20582;-48
2022/10/21 11:31:22;;;;;;;19.00;10.45;;;16.00;99.90;;;;;;5089852;28;20035;-47
2022/10/21 11:34:19;;;;;;;16.73;9.02;;;16.00;99.90;;;;;;5092664;28;20396;-48
2022/10/21 11:36:48;;;;;;;19.90;9.32;;;16.00;99.90;;;;;;5090878;28;20094;-49
2022/10/21 11:39:35;;;;;;;15.98;9.52;;;15.50;99.90;;;;;;5092237;28;20500;-47
2022/10/21 11:42:40;;;;;;;18.58;8.60;;;15.90;99.90;;;;;;5091876;28;20048;-48
2022/10/21 11:45:24;;;;;;;15.10;8.52;;;15.90;99.90;;;;;;5087726;28;20055;-48
2022/10/21 11:48:02;;;;;;;18.35;8.90;;;16.00;99.90;;;;;;5092209;28;20453;-48
2022/10/21 11:50:33;;;;;;;15.18;8.50;;;16.10;99.90;;;;;;5092249;28;20050;-49
2022/10/21 11:53:14;;;;;;;18.75;9.20;;;16.00;99.90;;;;;;5092178;28;20044;-48
2022/10/21 11:55:58;;;;;;;16.80;8.52;;;16.10;99.90;;;;;;5092268;28;20047;-47
2022/10/21 11:58:49;;;;;;;14.18;8.68;;;15.60;99.90;;;;;;5091716;28;20036;-49
2022/10/21 12:01:44;;;;;;;16.77;8.52;;;15.70;99.90;;;;;;5066434;28;20484;-50
2022/10/21 12:04:47;;;;;;;19.02;9.73;;;16.00;99.90;;;;;;5072327;28;20036;-49
2022/10/21 12:07:17;;;;;;;15.52;9.52;;;16.20;99.90;;;;;;5072131;28;20052;-48
2022/10/21 12:09:58;;;;;;;15.45;9.02;;;16.10;99.90;;;;;;5072383;28;20044;-48
2022/10/21 12:12:31;;;;;;;18.50;10.15;;;15.40;99.90;;;;;;5072287;28;20040;-50
2022/10/21 12:15:01;;;;;;;20.95;10.25;;;15.50;99.90;;;;;;5070696;28;20048;-49
2022/10/21 12:17:28;;;;;;;15.65;9.52;;;16.10;99.90;;;;;;5091757;28;20060;-49
2022/10/21 12:19:59;;;;;;;16.48;9.55;;;15.50;99.90;;;;;;5099246;28;20048;-48
2022/10/21 12:22:27;;;;;;;16.25;9.35;;;16.20;99.90;;;;;;5097608;28;20044;-48
2022/10/21 12:25:18;;;;;;;20.23;10.73;;;15.70;99.90;;;;;;5098695;28;20466;-48
2022/10/21 12:28:05;;;;;;;16.50;8.77;;;15.90;99.90;;;;;;5098984;28;20093;-48
2022/10/21 12:30:42;;;;;;;17.52;9.07;;;15.50;99.90;;;;;;5098687;28;20063;-47
2022/10/21 12:33:36;;;;;;;16.73;9.93;;;16.10;99.90;;;;;;5098858;28;20040;-48
2022/10/21 12:36:38;;;;;;;15.98;9.38;;;15.80;99.90;;;;;;5098915;28;20457;-49
2022/10/21 12:39:14;;;;;;;17.48;8.15;;;15.50;99.90;;;;;;5098667;28;20118;-48
2022/10/21 12:41:44;;;;;;;15.68;8.77;;;15.40;99.90;;;;;;5098158;28;20127;-49
2022/10/21 12:44:24;;;;;;;14.45;8.43;;;15.90;99.90;;;;;;5095959;28;20122;-48
2022/10/21 12:47:28;;;;;;;15.35;8.52;;;15.60;99.90;;;;;;5085615;28;20081;-50
2022/10/21 12:50:13;;;;;;;15.38;8.85;;;16.10;99.90;;;;;;5085247;28;20400;-48